Time;durP1;ratioP1;P1;durP2;ratioP2;P2;SDS_P1;SDS_P2;PMS_P1;PMS_P2;Temp;Humidity;BMP_temperature;BMP_pressure;BME280_temperature;BME280_humidity;BME280_pressure;Samples;Min_cycle;Max_cycle;Signal;HPM_P1;HPM_P2
2021/08/17 00:02:00;;;;;;;20.27;9.60;;;;;;;;;;5005015;28;20398;-77
2021/08/17 00:04:26;;;;;;;16.00;9.13;;;;;;;;;;5018353;28;20034;-77
2021/08/17 00:06:52;;;;;;;14.60;8.05;;;;;;;;;;5014080;28;20037;-77
2021/08/17 00:09:18;;;;;;;14.52;8.60;;;;;;;;;;5011971;28;20507;-77
2021/08/17 00:11:44;;;;;;;14.52;8.25;;;;;;;;;;5013542;28;20030;-77
2021/08/17 00:14:10;;;;;;;14.90;7.95;;;;;;;;;;5018157;28;20172;-76
2021/08/17 00:16:36;;;;;;;17.70;8.80;;;;;;;;;;5012361;28;20606;-77
2021/08/17 00:19:02;;;;;;;14.32;8.07;;;;;;;;;;5011795;28;20026;-77
2021/08/17 00:21:28;;;;;;;13.10;7.63;;;;;;;;;;5012604;28;20405;-78
2021/08/17 00:23:56;;;;;;;17.85;7.82;;;;;;;;;;5012546;28;20037;-77
2021/08/17 00:26:22;;;;;;;14.23;7.18;;;;;;;;;;5012492;28;20033;-77
2021/08/17 00:28:48;;;;;;;18.42;7.90;;;;;;;;;;5012043;28;20390;-77
2021/08/17 00:31:14;;;;;;;15.18;7.65;;;;;;;;;;5012042;28;20498;-78
2021/08/17 00:33:40;;;;;;;13.88;8.02;;;;;;;;;;5012398;28;20022;-78
2021/08/17 00:36:07;;;;;;;16.30;7.45;;;;;;;;;;4978625;28;20589;-77
2021/08/17 00:38:35;;;;;;;16.58;8.48;;;;;;;;;;5012304;28;20034;-78
2021/08/17 00:41:01;;;;;;;15.07;7.93;;;;;;;;;;5011961;28;20034;-77
2021/08/17 00:43:27;;;;;;;15.07;8.10;;;;;;;;;;5012547;28;20022;-78
2021/08/17 00:45:53;;;;;;;16.42;8.48;;;;;;;;;;4994647;28;20084;-78
2021/08/17 00:48:19;;;;;;;18.77;8.85;;;;;;;;;;5012530;28;20030;-78
2021/08/17 00:50:46;;;;;;;16.67;8.48;;;;;;;;;;4994311;28;20029;-77
2021/08/17 00:53:13;;;;;;;24.50;8.85;;;;;;;;;;5012283;28;20033;-78
2021/08/17 00:55:40;;;;;;;23.23;8.88;;;;;;;;;;4994450;28;20030;-78
2021/08/17 00:58:06;;;;;;;19.65;8.65;;;;;;;;;;5012321;28;20026;-77
2021/08/17 01:00:32;;;;;;;19.75;9.13;;;;;;;;;;5011618;28;20029;-77
2021/08/17 01:02:58;;;;;;;22.10;8.80;;;;;;;;;;4994516;28;20034;-77
2021/08/17 01:05:27;;;;;;;18.77;8.57;;;;;;;;;;5012920;28;20022;-77
2021/08/17 01:07:54;;;;;;;20.92;9.32;;;;;;;;;;5012669;28;20026;-77
2021/08/17 01:10:20;;;;;;;18.15;8.10;;;;;;;;;;5011822;28;20493;-79
2021/08/17 01:12:46;;;;;;;22.52;8.75;;;;;;;;;;5013675;28;20498;-77
2021/08/17 01:15:12;;;;;;;16.73;8.05;;;;;;;;;;5014697;28;20034;-78
2021/08/17 01:17:39;;;;;;;21.42;8.77;;;;;;;;;;5013652;28;20522;-78
2021/08/17 01:20:05;;;;;;;17.83;8.55;;;;;;;;;;5012756;28;20049;-77
2021/08/17 01:22:31;;;;;;;20.30;8.32;;;;;;;;;;4995487;28;20026;-78
2021/08/17 01:24:57;;;;;;;18.67;8.68;;;;;;;;;;5014102;28;20042;-78
2021/08/17 01:27:23;;;;;;;20.88;8.75;;;;;;;;;;5016198;28;20541;-77
2021/08/17 01:29:49;;;;;;;20.08;8.20;;;;;;;;;;5016740;28;20053;-77
2021/08/17 01:32:18;;;;;;;17.58;8.25;;;;;;;;;;5017169;28;20080;-78
2021/08/17 01:34:44;;;;;;;18.08;8.18;;;;;;;;;;5017395;28;20030;-78
2021/08/17 01:37:10;;;;;;;20.67;8.52;;;;;;;;;;4998888;28;20094;-77
2021/08/17 01:39:36;;;;;;;22.75;9.40;;;;;;;;;;4998196;28;20034;-77
2021/08/17 01:42:02;;;;;;;23.70;8.77;;;;;;;;;;4998864;28;20026;-77
2021/08/17 01:44:28;;;;;;;19.67;8.70;;;;;;;;;;5015830;28;20065;-76
2021/08/17 01:46:54;;;;;;;16.85;8.57;;;;;;;;;;5014960;28;20456;-77
2021/08/17 01:49:20;;;;;;;21.10;8.23;;;;;;;;;;4997136;28;20026;-77
2021/08/17 01:51:46;;;;;;;21.30;8.77;;;;;;;;;;5015068;28;20034;-77
2021/08/17 01:54:13;;;;;;;20.27;8.40;;;;;;;;;;4997176;28;20052;-77
2021/08/17 01:56:39;;;;;;;20.90;8.23;;;;;;;;;;4997256;28;20045;-77
2021/08/17 01:59:05;;;;;;;18.70;7.93;;;;;;;;;;5014291;28;20501;-77
2021/08/17 02:01:31;;;;;;;23.17;8.10;;;;;;;;;;4996976;28;20052;-77
2021/08/17 02:03:57;;;;;;;23.67;9.43;;;;;;;;;;5014776;28;20510;-77
2021/08/17 02:06:23;;;;;;;18.45;8.75;;;;;;;;;;5014537;28;20037;-76
2021/08/17 02:08:49;;;;;;;21.60;8.95;;;;;;;;;;4996660;28;20539;-78
2021/08/17 02:11:15;;;;;;;21.25;9.23;;;;;;;;;;5014093;28;20109;-77
2021/08/17 02:13:41;;;;;;;25.17;10.00;;;;;;;;;;5013045;28;20034;-77
2021/08/17 02:16:07;;;;;;;25.55;9.13;;;;;;;;;;4994695;28;20427;-76
2021/08/17 02:18:35;;;;;;;24.02;9.07;;;;;;;;;;4994761;28;20033;-76
2021/08/17 02:21:02;;;;;;;21.38;8.52;;;;;;;;;;4976958;28;20073;-77
2021/08/17 02:23:29;;;;;;;21.40;9.27;;;;;;;;;;4994771;28;20026;-77
2021/08/17 02:25:55;;;;;;;19.45;8.23;;;;;;;;;;4994419;28;20060;-77
2021/08/17 02:28:21;;;;;;;21.23;9.07;;;;;;;;;;4994572;28;20085;-77
2021/08/17 02:30:49;;;;;;;21.60;9.20;;;;;;;;;;4976724;28;20058;-77
2021/08/17 02:33:15;;;;;;;21.00;8.95;;;;;;;;;;4994355;28;20095;-77
2021/08/17 02:35:42;;;;;;;32.00;10.23;;;;;;;;;;4994167;28;20113;-76
2021/08/17 02:38:08;;;;;;;22.80;9.52;;;;;;;;;;4976821;28;20110;-77
2021/08/17 02:40:34;;;;;;;22.90;9.27;;;;;;;;;;4993573;28;20030;-78
2021/08/17 02:43:00;;;;;;;21.67;8.38;;;;;;;;;;4994252;28;20034;-77
2021/08/17 02:45:26;;;;;;;20.02;8.68;;;;;;;;;;5009629;28;20032;-77
2021/08/17 02:48:10;;;;;;;25.70;8.65;;;;;;;;;;4996145;28;20030;-77
2021/08/17 02:50:36;;;;;;;20.65;8.20;;;;;;;;;;4995656;28;20056;-77
2021/08/17 02:53:02;;;;;;;22.85;8.63;;;;;;;;;;5013605;28;20510;-77
2021/08/17 02:55:28;;;;;;;26.42;8.63;;;;;;;;;;4995911;28;20026;-78
2021/08/17 02:58:03;;;;;;;22.67;8.50;;;;;;;;;;4996008;28;20037;-77
2021/08/17 03:00:29;;;;;;;24.33;8.55;;;;;;;;;;5013071;28;20018;-77
2021/08/17 03:02:55;;;;;;;21.38;7.93;;;;;;;;;;5013624;28;20026;-77
2021/08/17 03:05:22;;;;;;;22.30;9.35;;;;;;;;;;5015024;28;20045;-76
2021/08/17 03:08:00;;;;;;;27.48;8.60;;;;;;;;;;5014035;28;20026;-77
2021/08/17 03:10:27;;;;;;;22.92;8.90;;;;;;;;;;5012625;28;20024;-77
2021/08/17 03:12:53;;;;;;;23.98;8.90;;;;;;;;;;5013233;28;20077;-77
2021/08/17 03:15:19;;;;;;;22.92;8.65;;;;;;;;;;4995685;28;20026;-76
2021/08/17 03:17:45;;;;;;;20.02;8.73;;;;;;;;;;5013256;28;20025;-77
2021/08/17 03:20:12;;;;;;;24.13;8.95;;;;;;;;;;4994987;28;20045;-77
2021/08/17 03:22:38;;;;;;;29.10;9.00;;;;;;;;;;5013084;28;20076;-77
2021/08/17 03:25:04;;;;;;;22.40;8.65;;;;;;;;;;4995153;28;20022;-77
2021/08/17 03:27:31;;;;;;;24.75;9.20;;;;;;;;;;4995436;28;20371;-77
2021/08/17 03:29:57;;;;;;;23.67;9.30;;;;;;;;;;4995153;28;20033;-77
2021/08/17 03:32:24;;;;;;;20.65;8.90;;;;;;;;;;5012948;28;20038;-77
2021/08/17 03:34:50;;;;;;;22.30;9.18;;;;;;;;;;5012859;28;20044;-77
2021/08/17 03:37:16;;;;;;;21.13;8.60;;;;;;;;;;5012808;28;20038;-78
2021/08/17 03:39:42;;;;;;;22.65;10.27;;;;;;;;;;4994628;28;20033;-78
2021/08/17 03:42:08;;;;;;;21.08;9.05;;;;;;;;;;5012815;28;20057;-77
2021/08/17 03:44:34;;;;;;;23.50;8.93;;;;;;;;;;5012609;28;20033;-78
2021/08/17 03:47:00;;;;;;;27.15;9.05;;;;;;;;;;5012667;28;20033;-77
2021/08/17 03:49:26;;;;;;;28.13;9.43;;;;;;;;;;5011660;28;20104;-78
2021/08/17 03:51:52;;;;;;;27.73;9.35;;;;;;;;;;5012321;28;20069;-78
2021/08/17 03:54:18;;;;;;;24.10;9.38;;;;;;;;;;5012301;28;20026;-77
2021/08/17 03:56:44;;;;;;;26.98;9.40;;;;;;;;;;5012516;28;20029;-77
2021/08/17 03:59:10;;;;;;;34.00;9.57;;;;;;;;;;5011965;28;20030;-77
2021/08/17 04:01:36;;;;;;;27.10;9.85;;;;;;;;;;5012501;28;20072;-77
2021/08/17 04:04:02;;;;;;;24.35;8.23;;;;;;;;;;5012580;28;20440;-78
2021/08/17 04:06:28;;;;;;;23.02;8.90;;;;;;;;;;5012251;28;20513;-77
2021/08/17 04:08:54;;;;;;;30.60;10.65;;;;;;;;;;4994502;28;20037;-77
2021/08/17 04:11:20;;;;;;;19.92;8.02;;;;;;;;;;5012197;28;20080;-77
2021/08/17 04:13:46;;;;;;;21.17;8.23;;;;;;;;;;5012245;28;20057;-77
2021/08/17 04:16:12;;;;;;;18.48;8.30;;;;;;;;;;5012216;28;20034;-77
2021/08/17 04:18:38;;;;;;;19.25;8.05;;;;;;;;;;5012114;28;20033;-77
2021/08/17 04:21:04;;;;;;;21.75;8.55;;;;;;;;;;5011816;28;20026;-77
2021/08/17 04:23:30;;;;;;;27.35;8.65;;;;;;;;;;4994657;28;20022;-77
2021/08/17 04:25:56;;;;;;;30.95;10.43;;;;;;;;;;5011826;28;20403;-77
2021/08/17 04:28:22;;;;;;;36.92;10.60;;;;;;;;;;5012120;28;20033;-77
2021/08/17 04:30:48;;;;;;;35.65;11.45;;;;;;;;;;5011538;28;20030;-77
2021/08/17 04:33:14;;;;;;;34.97;10.25;;;;;;;;;;5011978;28;20041;-77
2021/08/17 04:35:40;;;;;;;28.65;10.00;;;;;;;;;;5011809;28;20525;-77
2021/08/17 04:38:06;;;;;;;26.42;9.25;;;;;;;;;;4994438;28;20030;-77
2021/08/17 04:40:32;;;;;;;25.70;9.32;;;;;;;;;;4977607;28;20038;-77
2021/08/17 04:42:58;;;;;;;29.58;9.25;;;;;;;;;;4994373;28;20030;-78
2021/08/17 04:45:25;;;;;;;30.88;10.45;;;;;;;;;;5011724;28;20026;-77
2021/08/17 04:47:52;;;;;;;30.73;9.88;;;;;;;;;;5011939;28;20037;-77
2021/08/17 04:50:19;;;;;;;32.33;11.25;;;;;;;;;;5011356;28;20040;-77
2021/08/17 04:52:46;;;;;;;34.78;10.30;;;;;;;;;;5011759;28;20371;-77
2021/08/17 04:55:12;;;;;;;28.75;10.65;;;;;;;;;;5011574;28;20029;-77
2021/08/17 04:57:47;;;;;;;29.83;10.77;;;;;;;;;;4994289;28;20022;-78
2021/08/17 05:00:14;;;;;;;30.38;10.52;;;;;;;;;;5012268;28;20072;-76
2021/08/17 05:02:40;;;;;;;32.40;10.63;;;;;;;;;;5015748;28;20026;-77
2021/08/17 05:05:06;;;;;;;32.75;10.75;;;;;;;;;;5015560;28;20036;-76
2021/08/17 05:07:32;;;;;;;34.63;11.90;;;;;;;;;;5014594;28;20026;-77
2021/08/17 05:09:59;;;;;;;34.00;10.63;;;;;;;;;;5014819;28;20068;-76
2021/08/17 05:12:25;;;;;;;32.15;11.65;;;;;;;;;;5015582;28;20493;-77
2021/08/17 05:14:51;;;;;;;34.55;11.38;;;;;;;;;;5015358;28;20076;-77
2021/08/17 05:17:17;;;;;;;33.53;11.38;;;;;;;;;;4998081;28;20026;-77
2021/08/17 05:19:43;;;;;;;36.53;11.50;;;;;;;;;;5014934;28;20084;-77
2021/08/17 05:22:09;;;;;;;30.65;11.20;;;;;;;;;;4998030;28;20475;-77
2021/08/17 05:24:35;;;;;;;32.08;11.52;;;;;;;;;;5015055;28;20041;-77
2021/08/17 05:27:01;;;;;;;31.45;10.77;;;;;;;;;;5015286;28;20491;-77
2021/08/17 05:29:27;;;;;;;27.65;11.18;;;;;;;;;;5014709;28;20072;-77
2021/08/17 05:31:53;;;;;;;28.48;10.65;;;;;;;;;;5015096;28;20037;-77
2021/08/17 05:34:19;;;;;;;26.27;11.30;;;;;;;;;;5015239;28;20029;-76
2021/08/17 05:36:45;;;;;;;30.70;11.35;;;;;;;;;;5014958;28;20277;-77
2021/08/17 05:39:11;;;;;;;28.73;11.30;;;;;;;;;;5014605;28;20022;-77
2021/08/17 05:41:37;;;;;;;28.50;11.80;;;;;;;;;;5014812;28;20037;-77
2021/08/17 05:44:03;;;;;;;30.15;11.75;;;;;;;;;;5015010;28;20037;-77
2021/08/17 05:46:29;;;;;;;27.85;11.60;;;;;;;;;;5015018;28;20032;-77
2021/08/17 05:48:55;;;;;;;24.15;10.50;;;;;;;;;;5014387;28;20021;-78
2021/08/17 05:51:21;;;;;;;24.05;10.88;;;;;;;;;;4997509;28;20137;-77
2021/08/17 05:53:47;;;;;;;24.38;9.88;;;;;;;;;;4997259;28;20026;-77
2021/08/17 05:56:13;;;;;;;24.33;10.15;;;;;;;;;;5014542;28;20041;-77
2021/08/17 05:58:39;;;;;;;25.23;10.35;;;;;;;;;;4997015;28;20022;-76
2021/08/17 06:01:05;;;;;;;20.85;9.40;;;;;;;;;;5014347;28;20479;-77
2021/08/17 06:03:31;;;;;;;21.42;8.90;;;;;;;;;;4997734;28;20041;-77
2021/08/17 06:05:57;;;;;;;18.98;8.77;;;;;;;;;;4997238;28;20029;-76
2021/08/17 06:08:24;;;;;;;19.88;9.93;;;;;;;;;;5014705;28;20034;-77
2021/08/17 06:10:50;;;;;;;21.85;9.63;;;;;;;;;;5013278;28;20521;-77
2021/08/17 06:13:16;;;;;;;21.45;9.55;;;;;;;;;;5014652;28;20075;-76
2021/08/17 06:15:42;;;;;;;18.08;9.35;;;;;;;;;;5014480;28;20101;-76
2021/08/17 06:18:08;;;;;;;19.35;9.55;;;;;;;;;;5014541;28;20533;-77
2021/08/17 06:20:35;;;;;;;21.75;10.07;;;;;;;;;;5013980;28;20101;-77
2021/08/17 06:23:01;;;;;;;20.40;10.05;;;;;;;;;;5014376;28;20123;-76
2021/08/17 06:25:29;;;;;;;18.80;8.82;;;;;;;;;;5013969;28;20034;-76
2021/08/17 06:27:55;;;;;;;18.63;9.40;;;;;;;;;;5014335;28;20026;-77
2021/08/17 06:30:21;;;;;;;20.63;10.05;;;;;;;;;;5013725;28;20574;-76
2021/08/17 06:32:47;;;;;;;20.88;9.90;;;;;;;;;;5014172;28;20057;-77
2021/08/17 06:35:13;;;;;;;18.17;9.40;;;;;;;;;;5014612;28;20057;-77
2021/08/17 06:37:39;;;;;;;19.92;9.93;;;;;;;;;;5014186;28;20651;-76
2021/08/17 06:40:05;;;;;;;19.35;9.65;;;;;;;;;;5013465;28;20256;-77
2021/08/17 06:42:31;;;;;;;21.27;9.27;;;;;;;;;;5014063;28;20022;-77
2021/08/17 06:44:57;;;;;;;16.25;9.55;;;;;;;;;;4979969;28;20580;-77
2021/08/17 06:47:23;;;;;;;25.92;10.00;;;;;;;;;;5013789;28;20045;-77
2021/08/17 06:49:49;;;;;;;19.27;9.40;;;;;;;;;;4979788;28;20379;-77
2021/08/17 06:52:15;;;;;;;17.08;9.23;;;;;;;;;;5013816;28;20033;-76
2021/08/17 06:54:41;;;;;;;17.30;9.35;;;;;;;;;;5013758;28;20030;-77
2021/08/17 06:57:07;;;;;;;17.38;9.27;;;;;;;;;;5013424;28;20026;-77
2021/08/17 06:59:33;;;;;;;15.07;8.73;;;;;;;;;;5013087;28;20061;-77
2021/08/17 07:01:59;;;;;;;17.60;9.90;;;;;;;;;;5013559;28;20037;-77
2021/08/17 07:04:25;;;;;;;20.08;9.48;;;;;;;;;;5013547;28;20034;-77
2021/08/17 07:06:51;;;;;;;15.85;9.20;;;;;;;;;;5013452;28;20030;-77
2021/08/17 07:09:17;;;;;;;17.17;9.50;;;;;;;;;;5013039;28;20083;-77
2021/08/17 07:11:43;;;;;;;15.73;9.43;;;;;;;;;;5013637;28;20038;-77
2021/08/17 07:14:09;;;;;;;16.35;8.70;;;;;;;;;;5013476;28;20026;-77
2021/08/17 07:16:36;;;;;;;16.42;9.30;;;;;;;;;;5013452;28;20028;-76
2021/08/17 07:19:02;;;;;;;17.05;8.98;;;;;;;;;;5013020;28;20050;-76
2021/08/17 07:21:28;;;;;;;14.70;8.32;;;;;;;;;;4995734;28;20080;-77
2021/08/17 07:23:54;;;;;;;16.90;8.80;;;;;;;;;;4995352;28;20368;-77
2021/08/17 07:26:20;;;;;;;15.93;8.32;;;;;;;;;;5012899;28;20037;-76
2021/08/17 07:28:46;;;;;;;17.20;8.52;;;;;;;;;;5013045;28;20038;-77
2021/08/17 07:31:12;;;;;;;13.30;7.93;;;;;;;;;;4995115;28;20080;-77
2021/08/17 07:33:38;;;;;;;14.13;7.35;;;;;;;;;;5012999;28;20057;-76
2021/08/17 07:36:05;;;;;;;15.13;7.63;;;;;;;;;;4995444;28;20062;-78
2021/08/17 07:38:31;;;;;;;14.27;7.93;;;;;;;;;;5016879;22;20114;-82
2021/08/17 07:40:57;;;;;;;12.57;8.18;;;;;;;;;;4985464;28;20030;-82
2021/08/17 07:43:23;;;;;;;13.65;8.10;;;;;;;;;;4986268;28;20038;-80
2021/08/17 07:45:49;;;;;;;14.35;8.18;;;;;;;;;;4984869;28;20063;-80
2021/08/17 07:48:15;;;;;;;15.35;8.50;;;;;;;;;;4969184;28;20034;-80
2021/08/17 07:50:41;;;;;;;14.57;8.32;;;;;;;;;;4984979;28;20026;-81
2021/08/17 07:53:08;;;;;;;15.45;8.88;;;;;;;;;;4991937;28;20046;-80
2021/08/17 07:55:34;;;;;;;15.95;8.68;;;;;;;;;;4976609;28;20098;-80
2021/08/17 07:57:59;;;;;;;14.45;8.30;;;;;;;;;;4987984;28;20027;-80
2021/08/17 08:00:26;;;;;;;16.17;9.65;;;;;;;;;;4984531;28;20042;-80
2021/08/17 08:02:52;;;;;;;12.48;7.78;;;;;;;;;;4985238;28;20042;-80
2021/08/17 08:05:18;;;;;;;13.05;7.90;;;;;;;;;;4986359;28;20035;-81
2021/08/17 08:07:44;;;;;;;14.43;7.95;;;;;;;;;;4985390;28;20086;-82
2021/08/17 08:10:10;;;;;;;12.95;7.38;;;;;;;;;;4985540;28;20023;-80
2021/08/17 08:12:36;;;;;;;13.95;8.15;;;;;;;;;;4989086;28;20035;-80
2021/08/17 08:15:03;;;;;;;13.50;8.15;;;;;;;;;;4974722;28;20120;-80
2021/08/17 08:17:29;;;;;;;14.93;7.13;;;;;;;;;;4937344;29;20450;-77
2021/08/17 08:19:55;;;;;;;13.35;7.32;;;;;;;;;;4958109;29;20023;-76
2021/08/17 08:22:21;;;;;;;14.23;8.00;;;;;;;;;;4961895;29;20035;-81
2021/08/17 08:24:47;;;;;;;12.93;7.78;;;;;;;;;;4958361;29;20042;-79
2021/08/17 08:27:14;;;;;;;14.77;8.30;;;;;;;;;;4956020;28;20112;-77
2021/08/17 08:29:40;;;;;;;16.17;7.90;;;;;;;;;;4956087;28;20110;-77
2021/08/17 08:32:07;;;;;;;13.60;7.80;;;;;;;;;;4944699;29;20042;-79
2021/08/17 08:34:33;;;;;;;12.95;7.43;;;;;;;;;;4950284;29;20023;-79
2021/08/17 08:36:59;;;;;;;14.75;8.15;;;;;;;;;;4966988;28;20116;-79
2021/08/17 08:39:25;;;;;;;13.18;7.68;;;;;;;;;;4968798;28;20023;-81
2021/08/17 08:41:51;;;;;;;11.75;7.57;;;;;;;;;;4977241;29;20036;-80
2021/08/17 08:44:17;;;;;;;11.40;6.95;;;;;;;;;;4961244;28;20038;-81
2021/08/17 08:46:43;;;;;;;10.52;7.22;;;;;;;;;;4966815;28;20027;-80
2021/08/17 08:49:09;;;;;;;12.85;6.93;;;;;;;;;;4965913;28;20110;-80
2021/08/17 08:51:38;;;;;;;11.75;6.60;;;;;;;;;;4966990;29;20020;-79
2021/08/17 08:54:04;;;;;;;13.38;6.72;;;;;;;;;;4965236;28;20039;-79
2021/08/17 08:56:31;;;;;;;12.65;7.05;;;;;;;;;;4968016;28;20365;-79
2021/08/17 08:58:58;;;;;;;10.60;6.05;;;;;;;;;;4968201;28;20039;-78
2021/08/17 09:01:25;;;;;;;9.88;6.13;;;;;;;;;;4965827;28;20110;-80
2021/08/17 09:03:51;;;;;;;9.88;6.13;;;;;;;;;;4964585;28;20082;-80
2021/08/17 09:06:22;;;;;;;10.80;6.38;;;;;;;;;;4963679;29;20078;-79
2021/08/17 09:08:48;;;;;;;10.05;6.15;;;;;;;;;;4964378;28;20054;-79
2021/08/17 09:11:21;;;;;;;11.20;6.45;;;;;;;;;;4962544;28;20027;-80
2021/08/17 09:13:48;;;;;;;13.32;6.05;;;;;;;;;;4964492;28;20023;-79
2021/08/17 09:16:28;;;;;;;10.10;6.25;;;;;;;;;;4964994;28;20042;-78
2021/08/17 09:18:55;;;;;;;11.57;6.80;;;;;;;;;;4982077;28;20023;-78
2021/08/17 09:21:33;;;;;;;11.02;6.32;;;;;;;;;;4982778;28;20030;-80
2021/08/17 09:24:12;;;;;;;12.27;5.82;;;;;;;;;;4981599;28;20035;-79
2021/08/17 09:26:43;;;;;;;11.90;6.82;;;;;;;;;;4979999;28;20034;-79
2021/08/17 09:29:09;;;;;;;10.80;6.07;;;;;;;;;;4978898;28;20034;-79
2021/08/17 09:31:36;;;;;;;9.38;5.78;;;;;;;;;;4980412;28;20069;-80
2021/08/17 09:34:03;;;;;;;14.27;6.28;;;;;;;;;;4963495;28;20030;-80
2021/08/17 09:36:36;;;;;;;10.10;5.80;;;;;;;;;;4962684;28;20377;-79
2021/08/17 09:39:02;;;;;;;8.93;6.07;;;;;;;;;;4977414;28;20042;-80
2021/08/17 09:41:28;;;;;;;10.27;6.00;;;;;;;;;;4961454;28;20034;-80
2021/08/17 09:43:59;;;;;;;10.85;6.47;;;;;;;;;;4979427;28;20050;-79
2021/08/17 09:46:29;;;;;;;9.40;6.25;;;;;;;;;;4980204;28;20097;-80
2021/08/17 09:48:56;;;;;;;10.85;6.68;;;;;;;;;;4982671;28;20054;-79
2021/08/17 09:51:35;;;;;;;13.90;7.15;;;;;;;;;;4983812;28;20031;-79
2021/08/17 09:54:15;;;;;;;10.57;6.30;;;;;;;;;;4982933;28;20034;-79
2021/08/17 09:56:42;;;;;;;10.80;6.25;;;;;;;;;;4981858;28;20037;-79
2021/08/17 09:59:08;;;;;;;10.52;6.30;;;;;;;;;;4981413;28;20037;-80
2021/08/17 10:01:36;;;;;;;13.35;6.63;;;;;;;;;;4982098;28;20054;-79
2021/08/17 10:04:02;;;;;;;12.63;7.15;;;;;;;;;;4984496;28;20063;-79
2021/08/17 10:06:28;;;;;;;10.27;6.63;;;;;;;;;;4985052;28;20033;-80
2021/08/17 10:08:56;;;;;;;10.48;5.82;;;;;;;;;;4967655;28;20179;-79
2021/08/17 10:11:23;;;;;;;9.52;6.10;;;;;;;;;;4983762;28;20053;-79
2021/08/17 10:13:50;;;;;;;9.63;6.40;;;;;;;;;;4984422;28;20494;-79
2021/08/17 10:16:17;;;;;;;10.25;6.30;;;;;;;;;;5006453;28;20035;-81
2021/08/17 10:18:44;;;;;;;9.73;6.35;;;;;;;;;;5003664;28;20018;-82
2021/08/17 10:21:10;;;;;;;11.32;6.60;;;;;;;;;;5007170;28;20023;-81
2021/08/17 10:23:40;;;;;;;9.88;5.65;;;;;;;;;;5004265;28;20041;-80
2021/08/17 10:26:07;;;;;;;9.25;5.40;;;;;;;;;;5003552;28;20497;-80
2021/08/17 10:28:34;;;;;;;11.88;6.00;;;;;;;;;;5005264;28;20033;-79
2021/08/17 10:31:12;;;;;;;7.85;5.78;;;;;;;;;;5001720;28;20036;-80
2021/08/17 10:33:39;;;;;;;10.93;5.70;;;;;;;;;;5002615;28;20033;-79
2021/08/17 10:36:05;;;;;;;9.65;5.93;;;;;;;;;;4984412;28;20023;-79
2021/08/17 10:38:31;;;;;;;8.60;6.03;;;;;;;;;;5008560;28;20030;-79
2021/08/17 10:40:57;;;;;;;9.15;6.45;;;;;;;;;;4986770;28;20049;-79
2021/08/17 10:43:26;;;;;;;8.52;5.85;;;;;;;;;;5006513;28;20497;-80
2021/08/17 10:45:58;;;;;;;10.13;6.75;;;;;;;;;;4988262;28;20030;-79
2021/08/17 10:48:24;;;;;;;;;;;;;;;;;;4981629;28;20029;-79
2021/08/17 10:50:50;;;;;;;12.60;5.72;;;;;;;;;;4980291;28;19906;-79
2021/08/17 10:53:36;;;;;;;8.80;5.32;;;;;;;;;;4981182;28;20035;-80
2021/08/17 10:56:22;;;;;;;8.88;5.88;;;;;;;;;;4961965;28;20147;-79
2021/08/17 10:58:53;;;;;;;10.23;5.88;;;;;;;;;;4962448;28;20027;-79
2021/08/17 11:01:34;;;;;;;12.33;5.83;;;;;;;;;;4979792;28;20023;-79
2021/08/17 11:04:00;;;;;;;10.98;6.05;;;;;;;;;;4980619;28;20266;-80
2021/08/17 11:06:36;;;;;;;6.80;4.80;;;;;;;;;;4981153;28;20503;-80
2021/08/17 11:09:03;;;;;;;8.38;5.05;;;;;;;;;;4979905;28;20031;-79
2021/08/17 11:11:29;;;;;;;7.22;5.00;;;;;;;;;;4980988;28;20221;-79
2021/08/17 11:14:05;;;;;;;8.25;5.20;;;;;;;;;;4963419;28;20632;-80
2021/08/17 11:16:32;;;;;;;8.55;5.35;;;;;;;;;;4979397;28;20054;-79
2021/08/17 11:18:59;;;;;;;8.70;5.38;;;;;;;;;;4962037;28;20033;-80
2021/08/17 11:21:32;;;;;;;7.40;4.00;;;;;;;;;;4981534;28;20369;-80
2021/08/17 11:24:08;;;;;;;8.00;4.28;;;;;;;;;;4962109;28;20038;-80
2021/08/17 11:26:34;;;;;;;9.65;4.90;;;;;;;;;;4979649;28;20093;-80
2021/08/17 11:29:00;;;;;;;7.60;3.97;;;;;;;;;;4980580;28;20175;-80
2021/08/17 11:31:26;;;;;;;5.20;3.65;;;;;;;;;;4982748;28;20030;-80
2021/08/17 11:34:11;;;;;;;4.70;3.10;;;;;;;;;;4982085;28;20034;-80
2021/08/17 11:36:37;;;;;;;5.10;3.45;;;;;;;;;;4990015;28;20102;-80
2021/08/17 11:39:21;;;;;;;5.57;3.40;;;;;;;;;;4989624;28;20039;-81
2021/08/17 11:41:48;;;;;;;7.32;3.45;;;;;;;;;;4985223;28;20026;-80
2021/08/17 11:44:15;;;;;;;5.50;3.03;;;;;;;;;;4986285;28;20037;-79
2021/08/17 11:46:41;;;;;;;8.60;3.33;;;;;;;;;;4966756;28;20026;-80
2021/08/17 11:49:19;;;;;;;5.03;2.90;;;;;;;;;;4983628;28;20084;-82
2021/08/17 11:51:45;;;;;;;5.35;3.10;;;;;;;;;;4983399;28;20038;-80
2021/08/17 11:54:15;;;;;;;6.63;3.40;;;;;;;;;;4983910;28;20037;-80
2021/08/17 11:56:41;;;;;;;4.20;2.80;;;;;;;;;;4964584;28;20110;-80
2021/08/17 11:59:07;;;;;;;4.53;2.67;;;;;;;;;;4982309;28;20109;-79
2021/08/17 12:01:33;;;;;;;4.22;2.95;;;;;;;;;;4987350;28;20027;-80
2021/08/17 12:04:09;;;;;;;4.75;3.17;;;;;;;;;;4993477;28;20399;-81
2021/08/17 12:06:35;;;;;;;5.47;3.15;;;;;;;;;;4988168;28;20120;-80
2021/08/17 12:09:17;;;;;;;4.68;2.95;;;;;;;;;;4967626;28;20063;-79
2021/08/17 12:11:43;;;;;;;;;;;;;;;;;;4966813;28;20027;-80
2021/08/17 12:14:09;;;;;;;6.00;3.72;;;;;;;;;;4984964;28;19910;-79
2021/08/17 12:16:35;;;;;;;5.47;3.47;;;;;;;;;;4986422;28;20031;-79
2021/08/17 12:19:01;;;;;;;5.50;3.15;;;;;;;;;;4984805;28;20549;-80
2021/08/17 12:21:27;;;;;;;5.28;3.55;;;;;;;;;;4985277;28;20062;-80
2021/08/17 12:23:53;;;;;;;5.78;3.95;;;;;;;;;;4982337;28;20153;-80
2021/08/17 12:26:19;;;;;;;5.75;3.97;;;;;;;;;;4982227;28;20037;-80
2021/08/17 12:28:47;;;;;;;5.40;3.47;;;;;;;;;;4982530;28;20034;-80
2021/08/17 12:31:19;;;;;;;8.73;3.70;;;;;;;;;;4962810;28;20093;-80
2021/08/17 12:33:54;;;;;;;7.47;4.15;;;;;;;;;;4981659;28;20031;-80
2021/08/17 12:36:21;;;;;;;6.22;3.92;;;;;;;;;;4984462;28;20520;-80
2021/08/17 12:38:47;;;;;;;6.00;4.13;;;;;;;;;;4984088;28;20039;-80
2021/08/17 12:41:31;;;;;;;7.90;4.88;;;;;;;;;;4966660;28;20857;-80
2021/08/17 12:43:57;;;;;;;10.60;4.63;;;;;;;;;;4982091;28;20086;-80
2021/08/17 12:46:22;;;;;;;6.35;4.18;;;;;;;;;;4982058;28;20102;-80
2021/08/17 12:48:48;;;;;;;8.45;4.25;;;;;;;;;;4985030;28;20035;-79
2021/08/17 12:51:20;;;;;;;6.88;4.43;;;;;;;;;;4991393;28;20078;-79
2021/08/17 12:53:47;;;;;;;7.05;4.28;;;;;;;;;;4993938;28;20022;-79
2021/08/17 12:56:13;;;;;;;8.30;4.35;;;;;;;;;;4976970;28;20034;-80
2021/08/17 12:58:38;;;;;;;5.88;4.20;;;;;;;;;;4971083;28;20027;-80
2021/08/17 13:01:04;;;;;;;7.88;4.43;;;;;;;;;;4965016;28;20042;-79
2021/08/17 13:03:30;;;;;;;6.93;4.50;;;;;;;;;;4986240;28;20031;-79
2021/08/17 13:05:57;;;;;;;6.88;4.30;;;;;;;;;;4992426;28;20039;-80
2021/08/17 13:08:23;;;;;;;6.43;4.00;;;;;;;;;;4974287;28;20041;-80
2021/08/17 13:10:49;;;;;;;7.80;4.22;;;;;;;;;;4985822;28;20110;-80
2021/08/17 13:13:15;;;;;;;7.03;3.90;;;;;;;;;;4980705;28;20085;-80
2021/08/17 13:15:42;;;;;;;7.13;4.10;;;;;;;;;;4980355;28;20471;-80
2021/08/17 13:18:08;;;;;;;6.22;3.85;;;;;;;;;;4980400;28;20042;-80
2021/08/17 13:20:34;;;;;;;5.35;4.07;;;;;;;;;;4980350;28;20023;-80
2021/08/17 13:23:06;;;;;;;6.93;4.28;;;;;;;;;;4989294;28;20030;-80
2021/08/17 13:25:32;;;;;;;7.35;4.35;;;;;;;;;;4984106;28;20046;-80
2021/08/17 13:27:58;;;;;;;6.47;4.18;;;;;;;;;;4970121;28;20110;-80
2021/08/17 13:30:24;;;;;;;8.85;5.25;;;;;;;;;;4986804;28;20054;-80
2021/08/17 13:32:50;;;;;;;12.00;5.05;;;;;;;;;;4968689;28;20023;-80
2021/08/17 13:35:16;;;;;;;8.15;4.90;;;;;;;;;;4982902;28;20027;-80
2021/08/17 13:37:44;;;;;;;5.63;4.03;;;;;;;;;;4982918;28;20165;-80
2021/08/17 13:40:11;;;;;;;7.85;4.68;;;;;;;;;;4969520;28;20038;-79
2021/08/17 13:42:37;;;;;;;7.72;4.35;;;;;;;;;;4960955;29;20020;-79
2021/08/17 13:45:04;;;;;;;6.50;4.55;;;;;;;;;;4962394;29;20059;-80
2021/08/17 13:47:30;;;;;;;6.10;4.45;;;;;;;;;;4961551;28;20035;-80
2021/08/17 13:49:56;;;;;;;6.93;4.47;;;;;;;;;;4945155;29;20063;-80
2021/08/17 13:52:22;;;;;;;12.52;4.72;;;;;;;;;;4960986;29;20499;-80
2021/08/17 13:54:48;;;;;;;7.25;4.85;;;;;;;;;;4960537;29;20031;-80
2021/08/17 13:57:14;;;;;;;7.13;4.75;;;;;;;;;;4959943;28;20023;-80
2021/08/17 13:59:40;;;;;;;10.95;5.20;;;;;;;;;;4960065;29;20085;-80
2021/08/17 14:02:06;;;;;;;9.55;5.18;;;;;;;;;;4943201;29;20027;-79
2021/08/17 14:04:37;;;;;;;9.40;5.50;;;;;;;;;;4961087;28;20102;-82
2021/08/17 14:07:03;;;;;;;7.78;5.07;;;;;;;;;;4943578;28;20482;-80
2021/08/17 14:09:29;;;;;;;8.95;5.05;;;;;;;;;;4959063;29;20039;-80
2021/08/17 14:11:56;;;;;;;6.68;4.70;;;;;;;;;;4959438;29;20473;-80
2021/08/17 14:14:22;;;;;;;9.13;5.38;;;;;;;;;;4969543;28;20494;-81
2021/08/17 14:16:48;;;;;;;7.88;5.43;;;;;;;;;;4982862;28;20062;-81
2021/08/17 14:19:14;;;;;;;9.35;5.32;;;;;;;;;;4964807;28;20035;-81
2021/08/17 14:21:40;;;;;;;9.38;5.55;;;;;;;;;;4964181;28;20027;-80
2021/08/17 14:24:07;;;;;;;9.70;5.70;;;;;;;;;;4980083;28;20031;-80
2021/08/17 14:26:34;;;;;;;12.38;6.53;;;;;;;;;;4962457;28;20031;-80
2021/08/17 14:29:01;;;;;;;9.00;5.57;;;;;;;;;;4980214;28;20105;-79
2021/08/17 14:31:28;;;;;;;8.30;5.28;;;;;;;;;;4980345;28;20031;-79
2021/08/17 14:33:54;;;;;;;8.75;5.90;;;;;;;;;;4962786;28;20031;-80